sensor_id;sensor_type;location;lat;lon;timestamp;temperature;humidity
37642;DHT22;23486;51.956;5.888;2022-12-07T00:01:19;4.30;99.90
37642;DHT22;23486;51.956;5.888;2022-12-07T00:03:46;4.30;99.90
37642;DHT22;23486;51.956;5.888;2022-12-07T00:06:16;4.20;99.90
37642;DHT22;23486;51.956;5.888;2022-12-07T00:08:43;4.20;99.90
37642;DHT22;23486;51.956;5.888;2022-12-07T00:11:17;4.10;99.90
37642;DHT22;23486;51.956;5.888;2022-12-07T00:13:44;4.10;99.90
37642;DHT22;23486;51.956;5.888;2022-12-07T00:16:12;4.00;99.90
37642;DHT22;23486;51.956;5.888;2022-12-07T00:18:39;3.90;99.90
37642;DHT22;23486;51.956;5.888;2022-12-07T00:23:32;3.90;99.90
37642;DHT22;23486;51.956;5.888;2022-12-07T00:26:10;3.80;99.90
37642;DHT22;23486;51.956;5.888;2022-12-07T00:28:37;3.70;99.90
37642;DHT22;23486;51.956;5.888;2022-12-07T00:31:08;3.70;99.90
37642;DHT22;23486;51.956;5.888;2022-12-07T00:33:35;3.60;99.90
37642;DHT22;23486;51.956;5.888;2022-12-07T00:36:07;3.60;99.90
37642;DHT22;23486;51.956;5.888;2022-12-07T00:38:35;3.50;99.90
37642;DHT22;23486;51.956;5.888;2022-12-07T00:41:03;3.50;99.90
37642;DHT22;23486;51.956;5.888;2022-12-07T00:43:29;3.40;99.90
37642;DHT22;23486;51.956;5.888;2022-12-07T00:45:55;3.30;99.90
37642;DHT22;23486;51.956;5.888;2022-12-07T00:48:21;3.20;99.90
37642;DHT22;23486;51.956;5.888;2022-12-07T00:50:47;3.20;99.90
37642;DHT22;23486;51.956;5.888;2022-12-07T00:53:13;3.20;99.90
37642;DHT22;23486;51.956;5.888;2022-12-07T00:55:39;3.20;99.90
37642;DHT22;23486;51.956;5.888;2022-12-07T00:58:05;3.20;99.90
37642;DHT22;23486;51.956;5.888;2022-12-07T01:00:31;3.20;99.90
37642;DHT22;23486;51.956;5.888;2022-12-07T01:02:56;3.20;99.90
37642;DHT22;23486;51.956;5.888;2022-12-07T01:05:22;3.20;99.90
37642;DHT22;23486;51.956;5.888;2022-12-07T01:07:48;3.10;99.90
37642;DHT22;23486;51.956;5.888;2022-12-07T01:10:14;3.00;99.90
37642;DHT22;23486;51.956;5.888;2022-12-07T01:12:40;3.00;99.90
37642;DHT22;23486;51.956;5.888;2022-12-07T01:15:07;3.00;99.90
37642;DHT22;23486;51.956;5.888;2022-12-07T01:17:33;3.00;99.90
37642;DHT22;23486;51.956;5.888;2022-12-07T01:19:59;2.90;99.90
37642;DHT22;23486;51.956;5.888;2022-12-07T01:22:24;2.90;99.90
37642;DHT22;23486;51.956;5.888;2022-12-07T01:24:50;2.90;99.90
37642;DHT22;23486;51.956;5.888;2022-12-07T01:27:16;2.80;99.90
37642;DHT22;23486;51.956;5.888;2022-12-07T01:29:41;2.80;99.90
37642;DHT22;23486;51.956;5.888;2022-12-07T01:32:07;2.80;99.90
37642;DHT22;23486;51.956;5.888;2022-12-07T01:34:33;2.70;99.90
37642;DHT22;23486;51.956;5.888;2022-12-07T01:36:58;2.70;99.90
37642;DHT22;23486;51.956;5.888;2022-12-07T01:39:24;2.70;99.90
37642;DHT22;23486;51.956;5.888;2022-12-07T01:41:50;2.60;99.90
37642;DHT22;23486;51.956;5.888;2022-12-07T01:44:29;2.60;99.90
37642;DHT22;23486;51.956;5.888;2022-12-07T01:47:00;2.60;99.90
37642;DHT22;23486;51.956;5.888;2022-12-07T01:49:33;2.50;99.90
37642;DHT22;23486;51.956;5.888;2022-12-07T01:54:33;2.50;99.90
37642;DHT22;23486;51.956;5.888;2022-12-07T01:56:59;2.40;99.90
37642;DHT22;23486;51.956;5.888;2022-12-07T01:59:26;2.30;99.90
37642;DHT22;23486;51.956;5.888;2022-12-07T02:01:53;2.30;99.90
37642;DHT22;23486;51.956;5.888;2022-12-07T02:04:20;2.20;99.90
37642;DHT22;23486;51.956;5.888;2022-12-07T02:06:46;2.20;99.90
37642;DHT22;23486;51.956;5.888;2022-12-07T02:09:15;2.20;99.90
37642;DHT22;23486;51.956;5.888;2022-12-07T02:11:41;2.20;99.90
37642;DHT22;23486;51.956;5.888;2022-12-07T02:14:07;2.10;99.90
37642;DHT22;23486;51.956;5.888;2022-12-07T02:16:58;2.10;99.90
37642;DHT22;23486;51.956;5.888;2022-12-07T02:28:19;2.00;99.90
37642;DHT22;23486;51.956;5.888;2022-12-07T02:30:52;2.10;99.90
37642;DHT22;23486;51.956;5.888;2022-12-07T02:33:28;2.00;99.90
37642;DHT22;23486;51.956;5.888;2022-12-07T02:41:15;2.00;99.90
37642;DHT22;23486;51.956;5.888;2022-12-07T02:43:46;2.00;99.90
37642;DHT22;23486;51.956;5.888;2022-12-07T02:46:17;2.00;99.90
37642;DHT22;23486;51.956;5.888;2022-12-07T02:51:30;1.90;99.90
37642;DHT22;23486;51.956;5.888;2022-12-07T02:53:56;1.90;99.90
37642;DHT22;23486;51.956;5.888;2022-12-07T03:07:30;1.90;99.90
37642;DHT22;23486;51.956;5.888;2022-12-07T03:10:12;2.00;99.90
37642;DHT22;23486;51.956;5.888;2022-12-07T03:13:02;2.00;99.90
37642;DHT22;23486;51.956;5.888;2022-12-07T03:18:07;2.10;99.90
37642;DHT22;23486;51.956;5.888;2022-12-07T03:20:35;2.20;99.90
37642;DHT22;23486;51.956;5.888;2022-12-07T03:23:08;2.20;99.90
37642;DHT22;23486;51.956;5.888;2022-12-07T03:25:42;2.20;99.90
37642;DHT22;23486;51.956;5.888;2022-12-07T03:28:10;2.20;99.90
37642;DHT22;23486;51.956;5.888;2022-12-07T03:30:44;2.30;99.90
37642;DHT22;23486;51.956;5.888;2022-12-07T03:33:28;2.40;99.90
37642;DHT22;23486;51.956;5.888;2022-12-07T03:36:20;2.50;99.90
37642;DHT22;23486;51.956;5.888;2022-12-07T03:38:51;2.50;99.90
37642;DHT22;23486;51.956;5.888;2022-12-07T03:41:23;2.50;99.90
37642;DHT22;23486;51.956;5.888;2022-12-07T03:43:50;2.60;99.90
37642;DHT22;23486;51.956;5.888;2022-12-07T03:49:21;2.70;99.90
37642;DHT22;23486;51.956;5.888;2022-12-07T03:54:28;2.80;99.90
37642;DHT22;23486;51.956;5.888;2022-12-07T03:56:57;2.80;99.90
37642;DHT22;23486;51.956;5.888;2022-12-07T03:59:24;2.80;99.90
37642;DHT22;23486;51.956;5.888;2022-12-07T04:01:55;2.80;99.90
37642;DHT22;23486;51.956;5.888;2022-12-07T04:04:23;2.80;99.90
37642;DHT22;23486;51.956;5.888;2022-12-07T04:06:50;2.80;99.90
37642;DHT22;23486;51.956;5.888;2022-12-07T04:09:16;2.80;99.90
37642;DHT22;23486;51.956;5.888;2022-12-07T04:11:42;2.80;99.90
37642;DHT22;23486;51.956;5.888;2022-12-07T04:14:08;2.70;99.90
37642;DHT22;23486;51.956;5.888;2022-12-07T04:16:50;2.70;99.90
37642;DHT22;23486;51.956;5.888;2022-12-07T04:19:17;2.70;99.90
37642;DHT22;23486;51.956;5.888;2022-12-07T04:21:47;2.70;99.90
37642;DHT22;23486;51.956;5.888;2022-12-07T04:24:14;2.70;99.90
37642;DHT22;23486;51.956;5.888;2022-12-07T04:26:40;2.70;99.90
37642;DHT22;23486;51.956;5.888;2022-12-07T04:29:06;2.70;99.90
37642;DHT22;23486;51.956;5.888;2022-12-07T04:31:32;2.70;99.90
37642;DHT22;23486;51.956;5.888;2022-12-07T04:33:57;2.70;99.90
37642;DHT22;23486;51.956;5.888;2022-12-07T04:36:23;2.60;99.90
37642;DHT22;23486;51.956;5.888;2022-12-07T04:38:49;2.60;99.90
37642;DHT22;23486;51.956;5.888;2022-12-07T04:41:14;2.70;99.90
37642;DHT22;23486;51.956;5.888;2022-12-07T04:43:40;2.70;99.90
37642;DHT22;23486;51.956;5.888;2022-12-07T04:46:05;2.80;99.90
37642;DHT22;23486;51.956;5.888;2022-12-07T04:48:31;2.80;99.90
37642;DHT22;23486;51.956;5.888;2022-12-07T04:50:57;2.80;99.90
37642;DHT22;23486;51.956;5.888;2022-12-07T04:53:23;2.80;99.90
37642;DHT22;23486;51.956;5.888;2022-12-07T04:55:48;2.90;99.90
37642;DHT22;23486;51.956;5.888;2022-12-07T04:58:14;2.90;99.90
37642;DHT22;23486;51.956;5.888;2022-12-07T05:00:40;3.00;99.90
37642;DHT22;23486;51.956;5.888;2022-12-07T05:03:05;3.00;99.90
37642;DHT22;23486;51.956;5.888;2022-12-07T05:05:32;2.90;99.90
37642;DHT22;23486;51.956;5.888;2022-12-07T05:07:57;2.90;99.90
37642;DHT22;23486;51.956;5.888;2022-12-07T05:10:23;2.80;99.90
37642;DHT22;23486;51.956;5.888;2022-12-07T05:12:49;2.80;99.90
37642;DHT22;23486;51.956;5.888;2022-12-07T05:15:15;2.80;99.90
37642;DHT22;23486;51.956;5.888;2022-12-07T05:17:41;2.70;99.90
37642;DHT22;23486;51.956;5.888;2022-12-07T05:20:08;2.60;99.90
37642;DHT22;23486;51.956;5.888;2022-12-07T05:22:34;2.50;99.90
37642;DHT22;23486;51.956;5.888;2022-12-07T05:24:59;2.40;99.90
37642;DHT22;23486;51.956;5.888;2022-12-07T05:27:25;2.40;99.90
37642;DHT22;23486;51.956;5.888;2022-12-07T05:29:51;2.40;99.90
37642;DHT22;23486;51.956;5.888;2022-12-07T05:32:19;2.30;99.90
37642;DHT22;23486;51.956;5.888;2022-12-07T05:34:45;2.30;99.90
37642;DHT22;23486;51.956;5.888;2022-12-07T05:37:11;2.30;99.90
37642;DHT22;23486;51.956;5.888;2022-12-07T05:39:36;2.30;99.90
37642;DHT22;23486;51.956;5.888;2022-12-07T05:42:06;2.40;99.90
37642;DHT22;23486;51.956;5.888;2022-12-07T05:44:40;2.40;99.90
37642;DHT22;23486;51.956;5.888;2022-12-07T05:47:07;2.50;99.90
37642;DHT22;23486;51.956;5.888;2022-12-07T05:49:33;2.60;99.90
37642;DHT22;23486;51.956;5.888;2022-12-07T05:51:58;2.50;99.90
37642;DHT22;23486;51.956;5.888;2022-12-07T05:54:24;2.50;99.90
37642;DHT22;23486;51.956;5.888;2022-12-07T05:56:50;2.50;99.90
37642;DHT22;23486;51.956;5.888;2022-12-07T05:59:15;2.40;99.90
37642;DHT22;23486;51.956;5.888;2022-12-07T06:01:55;2.50;99.90
37642;DHT22;23486;51.956;5.888;2022-12-07T06:04:23;2.50;99.90
37642;DHT22;23486;51.956;5.888;2022-12-07T06:06:49;2.40;99.90
37642;DHT22;23486;51.956;5.888;2022-12-07T06:09:15;2.50;99.90
37642;DHT22;23486;51.956;5.888;2022-12-07T06:11:40;2.40;99.90
37642;DHT22;23486;51.956;5.888;2022-12-07T06:14:24;2.40;99.90
37642;DHT22;23486;51.956;5.888;2022-12-07T06:16:50;2.30;99.90
37642;DHT22;23486;51.956;5.888;2022-12-07T06:19:18;2.30;99.90
37642;DHT22;23486;51.956;5.888;2022-12-07T06:21:44;2.20;99.90
37642;DHT22;23486;51.956;5.888;2022-12-07T06:24:13;2.20;99.90
37642;DHT22;23486;51.956;5.888;2022-12-07T06:26:39;2.10;99.90
37642;DHT22;23486;51.956;5.888;2022-12-07T06:29:05;2.10;99.90
37642;DHT22;23486;51.956;5.888;2022-12-07T06:31:31;2.00;99.90
37642;DHT22;23486;51.956;5.888;2022-12-07T06:34:00;2.00;99.90
37642;DHT22;23486;51.956;5.888;2022-12-07T06:36:26;2.00;99.90
37642;DHT22;23486;51.956;5.888;2022-12-07T06:38:53;1.90;99.90
37642;DHT22;23486;51.956;5.888;2022-12-07T06:41:18;1.90;99.90
37642;DHT22;23486;51.956;5.888;2022-12-07T06:43:44;1.90;99.90
37642;DHT22;23486;51.956;5.888;2022-12-07T06:46:10;1.90;99.90
37642;DHT22;23486;51.956;5.888;2022-12-07T06:48:35;1.90;99.90
37642;DHT22;23486;51.956;5.888;2022-12-07T06:51:01;1.80;99.90
37642;DHT22;23486;51.956;5.888;2022-12-07T06:53:26;1.90;99.90
37642;DHT22;23486;51.956;5.888;2022-12-07T06:55:52;1.90;99.90
37642;DHT22;23486;51.956;5.888;2022-12-07T06:58:17;1.90;99.90
37642;DHT22;23486;51.956;5.888;2022-12-07T07:00:44;1.90;99.90
37642;DHT22;23486;51.956;5.888;2022-12-07T07:03:09;2.00;99.90
37642;DHT22;23486;51.956;5.888;2022-12-07T07:05:35;2.00;99.90
37642;DHT22;23486;51.956;5.888;2022-12-07T07:08:01;2.00;99.90
37642;DHT22;23486;51.956;5.888;2022-12-07T07:10:26;2.00;99.90
37642;DHT22;23486;51.956;5.888;2022-12-07T07:12:52;2.00;99.90
37642;DHT22;23486;51.956;5.888;2022-12-07T07:15:31;2.00;99.90
37642;DHT22;23486;51.956;5.888;2022-12-07T07:17:56;2.10;99.90
37642;DHT22;23486;51.956;5.888;2022-12-07T07:20:22;2.10;99.90
37642;DHT22;23486;51.956;5.888;2022-12-07T07:22:48;2.10;99.90
37642;DHT22;23486;51.956;5.888;2022-12-07T07:25:14;2.10;99.90
37642;DHT22;23486;51.956;5.888;2022-12-07T07:27:40;2.10;99.90
37642;DHT22;23486;51.956;5.888;2022-12-07T07:30:06;2.00;99.90
37642;DHT22;23486;51.956;5.888;2022-12-07T07:32:32;2.10;99.90
37642;DHT22;23486;51.956;5.888;2022-12-07T07:34:57;2.10;99.90
37642;DHT22;23486;51.956;5.888;2022-12-07T07:37:23;2.10;99.90
37642;DHT22;23486;51.956;5.888;2022-12-07T07:39:49;2.00;99.90
37642;DHT22;23486;51.956;5.888;2022-12-07T07:42:15;2.00;99.90
37642;DHT22;23486;51.956;5.888;2022-12-07T07:44:40;2.00;99.90
37642;DHT22;23486;51.956;5.888;2022-12-07T07:47:06;1.90;99.90
37642;DHT22;23486;51.956;5.888;2022-12-07T07:49:32;2.00;99.90
37642;DHT22;23486;51.956;5.888;2022-12-07T07:51:57;1.90;99.90
37642;DHT22;23486;51.956;5.888;2022-12-07T07:54:23;1.90;99.90
37642;DHT22;23486;51.956;5.888;2022-12-07T07:56:49;1.90;99.90
37642;DHT22;23486;51.956;5.888;2022-12-07T07:59:15;1.90;99.90
37642;DHT22;23486;51.956;5.888;2022-12-07T08:01:40;1.90;99.90
37642;DHT22;23486;51.956;5.888;2022-12-07T08:04:06;1.80;99.90
37642;DHT22;23486;51.956;5.888;2022-12-07T08:06:35;1.80;99.90
37642;DHT22;23486;51.956;5.888;2022-12-07T08:09:01;1.90;99.90
37642;DHT22;23486;51.956;5.888;2022-12-07T08:11:26;1.90;99.90
37642;DHT22;23486;51.956;5.888;2022-12-07T08:13:52;1.90;99.90
37642;DHT22;23486;51.956;5.888;2022-12-07T08:16:17;1.90;99.90
37642;DHT22;23486;51.956;5.888;2022-12-07T08:18:43;1.90;99.90
37642;DHT22;23486;51.956;5.888;2022-12-07T08:21:13;2.00;99.90
37642;DHT22;23486;51.956;5.888;2022-12-07T08:23:39;2.00;99.90
37642;DHT22;23486;51.956;5.888;2022-12-07T08:26:07;2.20;99.90
37642;DHT22;23486;51.956;5.888;2022-12-07T08:28:33;2.20;99.90
37642;DHT22;23486;51.956;5.888;2022-12-07T08:31:00;2.40;99.90
37642;DHT22;23486;51.956;5.888;2022-12-07T08:33:27;2.50;99.90
37642;DHT22;23486;51.956;5.888;2022-12-07T08:35:52;2.60;99.90
37642;DHT22;23486;51.956;5.888;2022-12-07T08:38:18;2.80;99.90
37642;DHT22;23486;51.956;5.888;2022-12-07T08:40:56;2.80;99.90
37642;DHT22;23486;51.956;5.888;2022-12-07T08:43:22;3.00;99.90
37642;DHT22;23486;51.956;5.888;2022-12-07T08:45:55;3.10;99.90
37642;DHT22;23486;51.956;5.888;2022-12-07T08:48:22;3.10;99.90
37642;DHT22;23486;51.956;5.888;2022-12-07T08:50:53;3.10;99.90
37642;DHT22;23486;51.956;5.888;2022-12-07T08:53:18;3.10;99.90
37642;DHT22;23486;51.956;5.888;2022-12-07T08:55:45;3.00;99.90
37642;DHT22;23486;51.956;5.888;2022-12-07T08:58:11;3.00;99.90
37642;DHT22;23486;51.956;5.888;2022-12-07T09:00:37;3.00;99.90
37642;DHT22;23486;51.956;5.888;2022-12-07T09:03:03;3.00;99.90
37642;DHT22;23486;51.956;5.888;2022-12-07T09:05:28;3.00;99.90
37642;DHT22;23486;51.956;5.888;2022-12-07T09:07:57;3.10;99.90
37642;DHT22;23486;51.956;5.888;2022-12-07T09:10:23;3.10;99.90
37642;DHT22;23486;51.956;5.888;2022-12-07T09:12:49;3.10;99.90
37642;DHT22;23486;51.956;5.888;2022-12-07T09:15:15;3.10;99.90
37642;DHT22;23486;51.956;5.888;2022-12-07T09:17:40;3.10;99.90
37642;DHT22;23486;51.956;5.888;2022-12-07T09:20:06;3.30;99.90
37642;DHT22;23486;51.956;5.888;2022-12-07T09:22:32;3.20;99.90
37642;DHT22;23486;51.956;5.888;2022-12-07T09:24:58;3.30;99.90
37642;DHT22;23486;51.956;5.888;2022-12-07T09:27:25;3.30;99.90
37642;DHT22;23486;51.956;5.888;2022-12-07T09:29:51;3.40;99.90
37642;DHT22;23486;51.956;5.888;2022-12-07T09:32:17;3.50;99.90
37642;DHT22;23486;51.956;5.888;2022-12-07T09:34:42;3.50;99.90
37642;DHT22;23486;51.956;5.888;2022-12-07T09:37:08;3.60;99.90
37642;DHT22;23486;51.956;5.888;2022-12-07T09:39:34;3.60;99.90
37642;DHT22;23486;51.956;5.888;2022-12-07T09:42:03;3.60;99.90
37642;DHT22;23486;51.956;5.888;2022-12-07T09:44:29;3.70;99.90
37642;DHT22;23486;51.956;5.888;2022-12-07T09:46:55;3.70;99.90
37642;DHT22;23486;51.956;5.888;2022-12-07T09:49:28;3.70;99.90
37642;DHT22;23486;51.956;5.888;2022-12-07T09:54:41;3.80;99.90
37642;DHT22;23486;51.956;5.888;2022-12-07T09:57:09;3.90;99.90
37642;DHT22;23486;51.956;5.888;2022-12-07T09:59:36;3.90;99.90
37642;DHT22;23486;51.956;5.888;2022-12-07T10:04:47;3.80;99.90
37642;DHT22;23486;51.956;5.888;2022-12-07T10:07:12;3.80;99.90
37642;DHT22;23486;51.956;5.888;2022-12-07T10:09:38;3.80;99.90
37642;DHT22;23486;51.956;5.888;2022-12-07T10:12:10;3.90;99.90
37642;DHT22;23486;51.956;5.888;2022-12-07T10:14:39;3.90;99.90
37642;DHT22;23486;51.956;5.888;2022-12-07T10:17:31;4.00;99.90
37642;DHT22;23486;51.956;5.888;2022-12-07T10:20:14;4.00;99.90
37642;DHT22;23486;51.956;5.888;2022-12-07T10:23:04;4.00;99.90
37642;DHT22;23486;51.956;5.888;2022-12-07T10:25:36;4.10;99.90
37642;DHT22;23486;51.956;5.888;2022-12-07T10:33:38;4.30;99.90
37642;DHT22;23486;51.956;5.888;2022-12-07T10:38:47;4.40;99.90
37642;DHT22;23486;51.956;5.888;2022-12-07T10:41:13;4.40;99.90
37642;DHT22;23486;51.956;5.888;2022-12-07T10:43:48;4.40;99.90
37642;DHT22;23486;51.956;5.888;2022-12-07T10:49:48;4.50;99.90
37642;DHT22;23486;51.956;5.888;2022-12-07T11:00:46;5.10;99.90
37642;DHT22;23486;51.956;5.888;2022-12-07T11:06:37;5.30;99.90
37642;DHT22;23486;51.956;5.888;2022-12-07T11:12:06;5.30;99.90
37642;DHT22;23486;51.956;5.888;2022-12-07T11:14:44;5.30;99.90
37642;DHT22;23486;51.956;5.888;2022-12-07T11:17:27;5.20;99.90
37642;DHT22;23486;51.956;5.888;2022-12-07T11:25:31;5.20;99.90
37642;DHT22;23486;51.956;5.888;2022-12-07T11:33:55;5.20;99.90
37642;DHT22;23486;51.956;5.888;2022-12-07T11:39:16;5.20;99.90
37642;DHT22;23486;51.956;5.888;2022-12-07T11:41:48;5.20;99.90
37642;DHT22;23486;51.956;5.888;2022-12-07T11:47:08;5.30;99.90
37642;DHT22;23486;51.956;5.888;2022-12-07T11:52:38;5.30;99.90
37642;DHT22;23486;51.956;5.888;2022-12-07T11:55:18;5.30;99.90
37642;DHT22;23486;51.956;5.888;2022-12-07T11:57:46;5.40;99.90
37642;DHT22;23486;51.956;5.888;2022-12-07T12:00:16;5.40;99.90
37642;DHT22;23486;51.956;5.888;2022-12-07T12:02:57;5.50;99.90
37642;DHT22;23486;51.956;5.888;2022-12-07T12:05:26;5.60;99.90
37642;DHT22;23486;51.956;5.888;2022-12-07T12:22:17;5.70;99.90
37642;DHT22;23486;51.956;5.888;2022-12-07T12:24:45;5.70;99.90
37642;DHT22;23486;51.956;5.888;2022-12-07T12:27:27;5.60;99.90
37642;DHT22;23486;51.956;5.888;2022-12-07T12:30:04;5.60;99.90
37642;DHT22;23486;51.956;5.888;2022-12-07T12:32:39;5.60;99.90
37642;DHT22;23486;51.956;5.888;2022-12-07T12:35:35;5.60;99.90
37642;DHT22;23486;51.956;5.888;2022-12-07T12:38:25;5.70;99.90
37642;DHT22;23486;51.956;5.888;2022-12-07T12:40:52;5.80;99.90
37642;DHT22;23486;51.956;5.888;2022-12-07T13:13:28;5.90;99.90
37642;DHT22;23486;51.956;5.888;2022-12-07T13:18:40;6.00;99.90
37642;DHT22;23486;51.956;5.888;2022-12-07T13:26:23;6.10;99.90
37642;DHT22;23486;51.956;5.888;2022-12-07T13:31:46;6.10;99.90
37642;DHT22;23486;51.956;5.888;2022-12-07T13:34:33;6.20;99.90
37642;DHT22;23486;51.956;5.888;2022-12-07T13:39:52;6.30;99.90
37642;DHT22;23486;51.956;5.888;2022-12-07T13:42:32;6.40;99.90
37642;DHT22;23486;51.956;5.888;2022-12-07T13:45:01;6.50;99.90
37642;DHT22;23486;51.956;5.888;2022-12-07T13:47:47;6.50;99.90
37642;DHT22;23486;51.956;5.888;2022-12-07T13:50:26;6.50;99.90
37642;DHT22;23486;51.956;5.888;2022-12-07T13:53:12;6.60;99.90
37642;DHT22;23486;51.956;5.888;2022-12-07T13:55:45;6.70;99.90
37642;DHT22;23486;51.956;5.888;2022-12-07T13:58:11;6.70;99.90
37642;DHT22;23486;51.956;5.888;2022-12-07T14:00:36;6.80;99.90
37642;DHT22;23486;51.956;5.888;2022-12-07T14:03:30;6.80;99.90
37642;DHT22;23486;51.956;5.888;2022-12-07T14:06:25;6.90;99.90
37642;DHT22;23486;51.956;5.888;2022-12-07T14:09:07;7.00;99.90
37642;DHT22;23486;51.956;5.888;2022-12-07T14:11:33;7.00;99.90
37642;DHT22;23486;51.956;5.888;2022-12-07T14:14:01;6.90;99.90
37642;DHT22;23486;51.956;5.888;2022-12-07T14:16:33;6.90;99.90
37642;DHT22;23486;51.956;5.888;2022-12-07T14:19:04;6.80;99.90
37642;DHT22;23486;51.956;5.888;2022-12-07T14:21:32;6.80;99.90
37642;DHT22;23486;51.956;5.888;2022-12-07T14:24:16;6.70;99.90
37642;DHT22;23486;51.956;5.888;2022-12-07T14:26:44;6.70;99.90
37642;DHT22;23486;51.956;5.888;2022-12-07T14:32:18;6.70;99.90
37642;DHT22;23486;51.956;5.888;2022-12-07T14:34:53;6.60;99.90
37642;DHT22;23486;51.956;5.888;2022-12-07T14:37:19;6.50;99.90
37642;DHT22;23486;51.956;5.888;2022-12-07T14:39:44;6.50;99.90
37642;DHT22;23486;51.956;5.888;2022-12-07T14:42:13;6.40;99.90
37642;DHT22;23486;51.956;5.888;2022-12-07T14:44:38;6.40;99.90
37642;DHT22;23486;51.956;5.888;2022-12-07T14:47:04;6.30;99.90
37642;DHT22;23486;51.956;5.888;2022-12-07T14:49:29;6.30;99.90
37642;DHT22;23486;51.956;5.888;2022-12-07T14:51:55;6.30;99.90
37642;DHT22;23486;51.956;5.888;2022-12-07T14:54:22;6.20;99.90
37642;DHT22;23486;51.956;5.888;2022-12-07T14:56:50;6.20;99.90
37642;DHT22;23486;51.956;5.888;2022-12-07T14:59:19;6.20;99.90
37642;DHT22;23486;51.956;5.888;2022-12-07T15:01:45;6.20;99.90
37642;DHT22;23486;51.956;5.888;2022-12-07T15:04:11;6.20;99.90
37642;DHT22;23486;51.956;5.888;2022-12-07T15:06:36;6.20;99.90
37642;DHT22;23486;51.956;5.888;2022-12-07T15:09:03;6.20;99.90
37642;DHT22;23486;51.956;5.888;2022-12-07T15:11:28;6.20;99.90
37642;DHT22;23486;51.956;5.888;2022-12-07T15:13:54;6.10;99.90
37642;DHT22;23486;51.956;5.888;2022-12-07T15:16:39;6.10;99.90
37642;DHT22;23486;51.956;5.888;2022-12-07T15:19:07;6.10;99.90
37642;DHT22;23486;51.956;5.888;2022-12-07T15:21:35;6.10;99.90
37642;DHT22;23486;51.956;5.888;2022-12-07T15:24:01;6.00;99.90
37642;DHT22;23486;51.956;5.888;2022-12-07T15:26:26;6.00;99.90
37642;DHT22;23486;51.956;5.888;2022-12-07T15:28:55;5.90;99.90
37642;DHT22;23486;51.956;5.888;2022-12-07T15:31:20;5.90;99.90
37642;DHT22;23486;51.956;5.888;2022-12-07T15:33:46;5.90;99.90
37642;DHT22;23486;51.956;5.888;2022-12-07T15:36:23;5.80;99.90
37642;DHT22;23486;51.956;5.888;2022-12-07T15:38:49;5.70;99.90
37642;DHT22;23486;51.956;5.888;2022-12-07T15:41:15;5.70;99.90
37642;DHT22;23486;51.956;5.888;2022-12-07T15:43:44;5.70;99.90
37642;DHT22;23486;51.956;5.888;2022-12-07T15:46:37;5.60;99.90
37642;DHT22;23486;51.956;5.888;2022-12-07T15:49:05;5.60;99.90
37642;DHT22;23486;51.956;5.888;2022-12-07T15:51:31;5.60;99.90
37642;DHT22;23486;51.956;5.888;2022-12-07T15:53:57;5.50;99.90
37642;DHT22;23486;51.956;5.888;2022-12-07T15:56:24;5.50;99.90
37642;DHT22;23486;51.956;5.888;2022-12-07T15:58:49;5.50;99.90
37642;DHT22;23486;51.956;5.888;2022-12-07T16:01:19;5.50;99.90
37642;DHT22;23486;51.956;5.888;2022-12-07T16:03:45;5.50;99.90
37642;DHT22;23486;51.956;5.888;2022-12-07T16:06:16;5.50;99.90
37642;DHT22;23486;51.956;5.888;2022-12-07T16:08:43;5.50;99.90
37642;DHT22;23486;51.956;5.888;2022-12-07T16:11:09;5.50;99.90
37642;DHT22;23486;51.956;5.888;2022-12-07T16:13:35;5.50;99.90
37642;DHT22;23486;51.956;5.888;2022-12-07T16:16:06;5.50;99.90
37642;DHT22;23486;51.956;5.888;2022-12-07T16:18:32;5.50;99.90
37642;DHT22;23486;51.956;5.888;2022-12-07T16:20:58;5.50;99.90
37642;DHT22;23486;51.956;5.888;2022-12-07T16:23:23;5.50;99.90
37642;DHT22;23486;51.956;5.888;2022-12-07T16:25:49;5.50;99.90
37642;DHT22;23486;51.956;5.888;2022-12-07T16:28:15;5.50;99.90
37642;DHT22;23486;51.956;5.888;2022-12-07T16:30:40;5.50;99.90
37642;DHT22;23486;51.956;5.888;2022-12-07T16:33:06;5.50;99.90
37642;DHT22;23486;51.956;5.888;2022-12-07T16:35:31;5.40;99.90
37642;DHT22;23486;51.956;5.888;2022-12-07T16:37:57;5.40;99.90
37642;DHT22;23486;51.956;5.888;2022-12-07T16:40:22;5.30;99.90
37642;DHT22;23486;51.956;5.888;2022-12-07T16:42:48;5.30;99.90
37642;DHT22;23486;51.956;5.888;2022-12-07T16:45:14;5.30;99.90
37642;DHT22;23486;51.956;5.888;2022-12-07T16:47:40;5.20;99.90
37642;DHT22;23486;51.956;5.888;2022-12-07T16:50:12;5.20;99.90
37642;DHT22;23486;51.956;5.888;2022-12-07T16:52:37;5.10;99.90
37642;DHT22;23486;51.956;5.888;2022-12-07T16:55:03;5.10;99.90
37642;DHT22;23486;51.956;5.888;2022-12-07T16:57:30;5.10;99.90
37642;DHT22;23486;51.956;5.888;2022-12-07T16:59:56;5.10;99.90
37642;DHT22;23486;51.956;5.888;2022-12-07T17:02:22;5.10;99.90
37642;DHT22;23486;51.956;5.888;2022-12-07T17:04:51;5.10;99.90
37642;DHT22;23486;51.956;5.888;2022-12-07T17:07:16;5.00;99.90
37642;DHT22;23486;51.956;5.888;2022-12-07T17:09:42;5.00;99.90
37642;DHT22;23486;51.956;5.888;2022-12-07T17:12:08;5.00;99.90
37642;DHT22;23486;51.956;5.888;2022-12-07T17:14:33;5.00;99.90
37642;DHT22;23486;51.956;5.888;2022-12-07T17:17:17;5.00;99.90
37642;DHT22;23486;51.956;5.888;2022-12-07T17:19:43;5.00;99.90
37642;DHT22;23486;51.956;5.888;2022-12-07T17:22:08;4.90;99.90
37642;DHT22;23486;51.956;5.888;2022-12-07T17:24:39;4.90;99.90
37642;DHT22;23486;51.956;5.888;2022-12-07T17:27:05;4.90;99.90
37642;DHT22;23486;51.956;5.888;2022-12-07T17:29:30;4.80;99.90
37642;DHT22;23486;51.956;5.888;2022-12-07T17:31:56;4.80;99.90
37642;DHT22;23486;51.956;5.888;2022-12-07T17:34:24;4.80;99.90
37642;DHT22;23486;51.956;5.888;2022-12-07T17:36:50;4.80;99.90
37642;DHT22;23486;51.956;5.888;2022-12-07T17:39:17;4.80;99.90
37642;DHT22;23486;51.956;5.888;2022-12-07T17:41:44;4.80;99.90
37642;DHT22;23486;51.956;5.888;2022-12-07T17:44:28;4.70;99.90
37642;DHT22;23486;51.956;5.888;2022-12-07T17:46:54;4.70;99.90
37642;DHT22;23486;51.956;5.888;2022-12-07T17:49:22;4.70;99.90
37642;DHT22;23486;51.956;5.888;2022-12-07T17:51:50;4.70;99.90
37642;DHT22;23486;51.956;5.888;2022-12-07T17:54:35;4.70;99.90
37642;DHT22;23486;51.956;5.888;2022-12-07T17:57:00;4.70;99.90
37642;DHT22;23486;51.956;5.888;2022-12-07T17:59:26;4.60;99.90
37642;DHT22;23486;51.956;5.888;2022-12-07T18:01:52;4.60;99.90
37642;DHT22;23486;51.956;5.888;2022-12-07T18:04:18;4.60;99.90
37642;DHT22;23486;51.956;5.888;2022-12-07T18:06:44;4.60;99.90
37642;DHT22;23486;51.956;5.888;2022-12-07T18:09:10;4.60;99.90
37642;DHT22;23486;51.956;5.888;2022-12-07T18:11:36;4.70;99.90
37642;DHT22;23486;51.956;5.888;2022-12-07T18:14:02;4.60;99.90
37642;DHT22;23486;51.956;5.888;2022-12-07T18:16:30;4.60;99.90
37642;DHT22;23486;51.956;5.888;2022-12-07T18:19:01;4.60;99.90
37642;DHT22;23486;51.956;5.888;2022-12-07T18:21:29;4.60;99.90
37642;DHT22;23486;51.956;5.888;2022-12-07T18:24:00;4.60;99.90
37642;DHT22;23486;51.956;5.888;2022-12-07T18:26:28;4.60;99.90
37642;DHT22;23486;51.956;5.888;2022-12-07T18:28:54;4.50;99.90